Portada
METAR-TAF:

METAR-TAF

Aeroports :

Zabol, Iran

latitud: 31-20N, longitud: 061-29E, altitud: 489 m

Observació

L'informe es va fer fa 1 hora i 33 minuts, a les 21:00 UTC
Vent 10 kt del Nord
Temperatura 9°C
Humitat 21%
Pressió 1022 hPa
Visibilitat 10 km o més
sense núvols per sota de 1500 mi sense presència de cumulonimbus.

METAR: OIZB 132100Z 35010KT CAVOK 09/M12 Q1022

Hora: 02:03 (22:33 UTC)


TAF: manca

Observacions i pronòstics meteorològics de més de 4000 aeroports (METAR i TAF).

Les estacions disponibles són els punts grocs i vermells al mapa.

Posi el ratolí al punt desitjat per veure el nom de l'estació.

Feu clic per veure les observacions i els pronòstics meteorològics.

Per canviar el mapa: feu clic els botons verds amb una creu de color negre per apropar; al botó verd amb un guió per allunyar la imatge; o en les fletxes verdes per a mapes adjacents.


METAR-TAF: